sensor_id;sensor_type;location;lat;lon;timestamp;P1;durP1;ratioP1;P2;durP2;ratioP2
34836;SDS011;21053;50.848;4.652;2023-02-13T00:01:00;83.82;;;32.28;;
34836;SDS011;21053;50.848;4.652;2023-02-13T00:03:28;90.05;;;32.67;;
34836;SDS011;21053;50.848;4.652;2023-02-13T00:05:55;95.82;;;32.60;;
34836;SDS011;21053;50.848;4.652;2023-02-13T00:08:23;83.97;;;32.97;;
34836;SDS011;21053;50.848;4.652;2023-02-13T00:10:50;90.18;;;34.05;;
34836;SDS011;21053;50.848;4.652;2023-02-13T00:13:19;88.65;;;32.40;;
34836;SDS011;21053;50.848;4.652;2023-02-13T00:15:54;89.00;;;32.78;;
34836;SDS011;21053;50.848;4.652;2023-02-13T00:18:26;95.18;;;34.33;;
34836;SDS011;21053;50.848;4.652;2023-02-13T00:23:34;91.05;;;32.40;;
34836;SDS011;21053;50.848;4.652;2023-02-13T00:26:07;93.40;;;32.67;;
34836;SDS011;21053;50.848;4.652;2023-02-13T00:28:37;96.88;;;32.63;;
34836;SDS011;21053;50.848;4.652;2023-02-13T00:31:08;96.93;;;33.78;;
34836;SDS011;21053;50.848;4.652;2023-02-13T00:36:12;81.55;;;31.60;;
34836;SDS011;21053;50.848;4.652;2023-02-13T00:38:40;95.93;;;33.38;;
34836;SDS011;21053;50.848;4.652;2023-02-13T00:41:09;109.05;;;37.80;;
34836;SDS011;21053;50.848;4.652;2023-02-13T00:46:06;178.23;;;36.70;;
34836;SDS011;21053;50.848;4.652;2023-02-13T00:48:38;194.70;;;42.75;;
34836;SDS011;21053;50.848;4.652;2023-02-13T00:51:06;216.98;;;39.45;;
34836;SDS011;21053;50.848;4.652;2023-02-13T00:53:33;166.65;;;36.42;;
34836;SDS011;21053;50.848;4.652;2023-02-13T00:56:03;175.82;;;40.42;;
34836;SDS011;21053;50.848;4.652;2023-02-13T00:58:33;154.25;;;38.67;;
34836;SDS011;21053;50.848;4.652;2023-02-13T01:00:59;155.27;;;41.47;;
34836;SDS011;21053;50.848;4.652;2023-02-13T01:03:28;139.48;;;41.83;;
34836;SDS011;21053;50.848;4.652;2023-02-13T01:05:54;154.05;;;41.78;;
34836;SDS011;21053;50.848;4.652;2023-02-13T01:08:21;178.65;;;42.33;;
34836;SDS011;21053;50.848;4.652;2023-02-13T01:10:50;195.60;;;42.03;;
34836;SDS011;21053;50.848;4.652;2023-02-13T01:13:17;200.52;;;40.65;;
34836;SDS011;21053;50.848;4.652;2023-02-13T01:15:44;165.32;;;41.35;;
34836;SDS011;21053;50.848;4.652;2023-02-13T01:18:17;193.38;;;42.03;;
34836;SDS011;21053;50.848;4.652;2023-02-13T01:20:44;188.13;;;43.03;;
34836;SDS011;21053;50.848;4.652;2023-02-13T01:25:58;205.05;;;42.00;;
34836;SDS011;21053;50.848;4.652;2023-02-13T01:28:24;195.48;;;42.70;;
34836;SDS011;21053;50.848;4.652;2023-02-13T01:30:56;221.90;;;43.10;;
34836;SDS011;21053;50.848;4.652;2023-02-13T01:33:23;233.38;;;41.85;;
34836;SDS011;21053;50.848;4.652;2023-02-13T01:35:53;278.70;;;42.65;;
34836;SDS011;21053;50.848;4.652;2023-02-13T01:38:22;191.65;;;43.05;;
34836;SDS011;21053;50.848;4.652;2023-02-13T01:40:51;121.72;;;39.80;;
34836;SDS011;21053;50.848;4.652;2023-02-13T01:43:21;174.50;;;39.10;;
34836;SDS011;21053;50.848;4.652;2023-02-13T01:45:55;194.70;;;38.90;;
34836;SDS011;21053;50.848;4.652;2023-02-13T01:51:00;133.43;;;37.28;;
34836;SDS011;21053;50.848;4.652;2023-02-13T01:53:39;163.20;;;35.83;;
34836;SDS011;21053;50.848;4.652;2023-02-13T02:01:24;167.07;;;33.95;;
34836;SDS011;21053;50.848;4.652;2023-02-13T02:03:54;164.15;;;35.67;;
34836;SDS011;21053;50.848;4.652;2023-02-13T02:12:03;88.75;;;33.58;;
34836;SDS011;21053;50.848;4.652;2023-02-13T02:14:33;118.82;;;32.42;;
34836;SDS011;21053;50.848;4.652;2023-02-13T02:17:00;142.30;;;34.60;;
34836;SDS011;21053;50.848;4.652;2023-02-13T02:19:44;143.57;;;33.90;;
34836;SDS011;21053;50.848;4.652;2023-02-13T02:25:44;191.35;;;36.38;;
34836;SDS011;21053;50.848;4.652;2023-02-13T02:37:01;148.00;;;33.78;;
34836;SDS011;21053;50.848;4.652;2023-02-13T02:45:38;127.05;;;32.40;;
34836;SDS011;21053;50.848;4.652;2023-02-13T02:54:00;157.32;;;31.40;;
34836;SDS011;21053;50.848;4.652;2023-02-13T02:57:02;147.80;;;30.83;;
34836;SDS011;21053;50.848;4.652;2023-02-13T03:00:11;155.20;;;31.25;;
34836;SDS011;21053;50.848;4.652;2023-02-13T03:08:37;148.90;;;30.88;;
34836;SDS011;21053;50.848;4.652;2023-02-13T03:11:37;163.15;;;30.05;;
34836;SDS011;21053;50.848;4.652;2023-02-13T03:16:55;134.07;;;29.52;;
34836;SDS011;21053;50.848;4.652;2023-02-13T03:19:44;81.68;;;28.48;;
34836;SDS011;21053;50.848;4.652;2023-02-13T03:25:35;152.55;;;28.88;;
34836;SDS011;21053;50.848;4.652;2023-02-13T03:28:26;146.10;;;28.33;;
34836;SDS011;21053;50.848;4.652;2023-02-13T03:31:31;136.63;;;27.88;;
34836;SDS011;21053;50.848;4.652;2023-02-13T03:34:05;99.25;;;28.88;;
34836;SDS011;21053;50.848;4.652;2023-02-13T03:48:13;91.45;;;28.25;;
34836;SDS011;21053;50.848;4.652;2023-02-13T03:51:01;90.05;;;26.88;;
34836;SDS011;21053;50.848;4.652;2023-02-13T03:53:32;79.85;;;26.30;;
34836;SDS011;21053;50.848;4.652;2023-02-13T03:56:01;93.70;;;26.20;;
34836;SDS011;21053;50.848;4.652;2023-02-13T03:58:50;92.38;;;26.08;;
34836;SDS011;21053;50.848;4.652;2023-02-13T04:01:42;106.35;;;26.38;;
34836;SDS011;21053;50.848;4.652;2023-02-13T04:07:01;126.63;;;27.27;;
34836;SDS011;21053;50.848;4.652;2023-02-13T04:09:34;82.30;;;27.00;;
34836;SDS011;21053;50.848;4.652;2023-02-13T04:19:49;99.30;;;26.23;;
34836;SDS011;21053;50.848;4.652;2023-02-13T04:22:15;98.03;;;26.38;;
34836;SDS011;21053;50.848;4.652;2023-02-13T04:24:44;71.50;;;26.00;;
34836;SDS011;21053;50.848;4.652;2023-02-13T04:27:12;80.43;;;27.95;;
34836;SDS011;21053;50.848;4.652;2023-02-13T04:29:39;92.38;;;26.70;;
34836;SDS011;21053;50.848;4.652;2023-02-13T04:32:08;120.05;;;26.55;;
34836;SDS011;21053;50.848;4.652;2023-02-13T04:34:36;77.00;;;26.73;;
34836;SDS011;21053;50.848;4.652;2023-02-13T04:37:05;95.78;;;26.80;;
34836;SDS011;21053;50.848;4.652;2023-02-13T04:41:59;86.45;;;26.98;;
34836;SDS011;21053;50.848;4.652;2023-02-13T04:44:26;129.63;;;26.17;;
34836;SDS011;21053;50.848;4.652;2023-02-13T04:46:54;89.72;;;25.30;;
34836;SDS011;21053;50.848;4.652;2023-02-13T04:49:22;110.93;;;26.42;;
34836;SDS011;21053;50.848;4.652;2023-02-13T04:51:49;76.10;;;25.65;;
34836;SDS011;21053;50.848;4.652;2023-02-13T04:54:17;108.30;;;25.73;;
34836;SDS011;21053;50.848;4.652;2023-02-13T04:56:43;190.45;;;24.05;;
34836;SDS011;21053;50.848;4.652;2023-02-13T04:59:09;155.18;;;26.02;;
34836;SDS011;21053;50.848;4.652;2023-02-13T05:04:06;164.95;;;24.45;;
34836;SDS011;21053;50.848;4.652;2023-02-13T05:06:35;191.18;;;24.00;;
34836;SDS011;21053;50.848;4.652;2023-02-13T05:09:09;200.25;;;23.85;;
34836;SDS011;21053;50.848;4.652;2023-02-13T05:11:36;111.13;;;24.10;;
34836;SDS011;21053;50.848;4.652;2023-02-13T05:14:03;103.93;;;23.08;;
34836;SDS011;21053;50.848;4.652;2023-02-13T05:16:29;123.10;;;23.05;;
34836;SDS011;21053;50.848;4.652;2023-02-13T05:18:56;142.32;;;23.45;;
34836;SDS011;21053;50.848;4.652;2023-02-13T05:21:24;139.82;;;22.17;;
34836;SDS011;21053;50.848;4.652;2023-02-13T05:24:11;118.82;;;21.98;;
34836;SDS011;21053;50.848;4.652;2023-02-13T05:26:37;145.40;;;22.23;;
34836;SDS011;21053;50.848;4.652;2023-02-13T05:29:07;69.93;;;22.02;;
34836;SDS011;21053;50.848;4.652;2023-02-13T05:31:43;114.20;;;23.00;;
34836;SDS011;21053;50.848;4.652;2023-02-13T05:34:19;198.95;;;23.63;;
34836;SDS011;21053;50.848;4.652;2023-02-13T05:36:47;120.78;;;22.23;;
34836;SDS011;21053;50.848;4.652;2023-02-13T05:39:16;121.45;;;22.70;;
34836;SDS011;21053;50.848;4.652;2023-02-13T05:41:43;95.05;;;23.00;;
34836;SDS011;21053;50.848;4.652;2023-02-13T05:44:12;94.13;;;22.67;;
34836;SDS011;21053;50.848;4.652;2023-02-13T05:46:44;93.20;;;24.05;;
34836;SDS011;21053;50.848;4.652;2023-02-13T05:49:12;83.80;;;22.55;;
34836;SDS011;21053;50.848;4.652;2023-02-13T05:51:41;74.28;;;23.30;;
34836;SDS011;21053;50.848;4.652;2023-02-13T05:56:38;151.25;;;24.55;;
34836;SDS011;21053;50.848;4.652;2023-02-13T05:59:04;122.05;;;23.48;;
34836;SDS011;21053;50.848;4.652;2023-02-13T06:04:08;58.15;;;22.27;;
34836;SDS011;21053;50.848;4.652;2023-02-13T06:06:36;64.45;;;22.42;;
34836;SDS011;21053;50.848;4.652;2023-02-13T06:11:34;68.47;;;22.02;;
34836;SDS011;21053;50.848;4.652;2023-02-13T06:14:01;77.85;;;22.60;;
34836;SDS011;21053;50.848;4.652;2023-02-13T06:16:26;86.47;;;22.75;;
34836;SDS011;21053;50.848;4.652;2023-02-13T06:18:56;70.32;;;21.23;;
34836;SDS011;21053;50.848;4.652;2023-02-13T06:21:23;88.65;;;23.17;;
34836;SDS011;21053;50.848;4.652;2023-02-13T06:23:49;92.15;;;21.73;;
34836;SDS011;21053;50.848;4.652;2023-02-13T06:26:15;65.57;;;21.65;;
34836;SDS011;21053;50.848;4.652;2023-02-13T06:31:12;91.53;;;22.48;;
34836;SDS011;21053;50.848;4.652;2023-02-13T06:33:38;78.70;;;20.83;;
34836;SDS011;21053;50.848;4.652;2023-02-13T06:36:04;75.47;;;19.80;;
34836;SDS011;21053;50.848;4.652;2023-02-13T06:38:36;134.07;;;21.98;;
34836;SDS011;21053;50.848;4.652;2023-02-13T06:41:01;62.42;;;21.13;;
34836;SDS011;21053;50.848;4.652;2023-02-13T06:43:27;234.65;;;28.80;;
34836;SDS011;21053;50.848;4.652;2023-02-13T06:45:56;44.60;;;19.52;;
34836;SDS011;21053;50.848;4.652;2023-02-13T06:48:24;77.43;;;20.33;;
34836;SDS011;21053;50.848;4.652;2023-02-13T06:50:52;92.35;;;20.35;;
34836;SDS011;21053;50.848;4.652;2023-02-13T06:55:52;75.13;;;19.60;;
34836;SDS011;21053;50.848;4.652;2023-02-13T06:58:20;99.28;;;19.58;;
34836;SDS011;21053;50.848;4.652;2023-02-13T07:00:50;85.18;;;19.75;;
34836;SDS011;21053;50.848;4.652;2023-02-13T07:03:17;54.65;;;19.25;;
34836;SDS011;21053;50.848;4.652;2023-02-13T07:05:46;73.20;;;19.10;;
34836;SDS011;21053;50.848;4.652;2023-02-13T07:10:47;59.60;;;17.60;;
34836;SDS011;21053;50.848;4.652;2023-02-13T07:13:15;92.60;;;26.15;;
34836;SDS011;21053;50.848;4.652;2023-02-13T07:15:42;63.40;;;18.48;;
34836;SDS011;21053;50.848;4.652;2023-02-13T07:18:09;111.43;;;29.40;;
34836;SDS011;21053;50.848;4.652;2023-02-13T07:20:38;68.65;;;24.15;;
34836;SDS011;21053;50.848;4.652;2023-02-13T07:23:06;56.15;;;22.75;;
34836;SDS011;21053;50.848;4.652;2023-02-13T07:25:33;43.03;;;20.75;;
34836;SDS011;21053;50.848;4.652;2023-02-13T07:28:00;37.72;;;18.35;;
34836;SDS011;21053;50.848;4.652;2023-02-13T07:30:30;33.47;;;17.85;;
34836;SDS011;21053;50.848;4.652;2023-02-13T07:35:29;33.63;;;17.02;;
34836;SDS011;21053;50.848;4.652;2023-02-13T07:37:58;29.00;;;17.30;;
34836;SDS011;21053;50.848;4.652;2023-02-13T07:42:58;28.45;;;16.60;;
34836;SDS011;21053;50.848;4.652;2023-02-13T07:45:24;30.65;;;17.27;;
34836;SDS011;21053;50.848;4.652;2023-02-13T07:47:53;32.67;;;17.23;;
34836;SDS011;21053;50.848;4.652;2023-02-13T07:50:20;29.80;;;16.35;;
34836;SDS011;21053;50.848;4.652;2023-02-13T07:52:56;27.13;;;16.33;;
34836;SDS011;21053;50.848;4.652;2023-02-13T07:55:23;29.58;;;16.20;;
34836;SDS011;21053;50.848;4.652;2023-02-13T07:57:52;26.73;;;17.08;;
34836;SDS011;21053;50.848;4.652;2023-02-13T08:00:24;29.60;;;16.63;;
34836;SDS011;21053;50.848;4.652;2023-02-13T08:02:51;29.70;;;17.70;;
34836;SDS011;21053;50.848;4.652;2023-02-13T08:05:18;31.60;;;17.42;;
34836;SDS011;21053;50.848;4.652;2023-02-13T08:07:46;30.52;;;17.95;;
34836;SDS011;21053;50.848;4.652;2023-02-13T08:13:00;35.05;;;17.83;;
34836;SDS011;21053;50.848;4.652;2023-02-13T08:15:30;32.00;;;17.38;;
34836;SDS011;21053;50.848;4.652;2023-02-13T08:20:27;33.50;;;18.50;;
34836;SDS011;21053;50.848;4.652;2023-02-13T08:25:09;34.03;;;18.80;;
34836;SDS011;21053;50.848;4.652;2023-02-13T08:27:38;34.38;;;19.30;;
34836;SDS011;21053;50.848;4.652;2023-02-13T08:30:05;33.78;;;19.10;;
34836;SDS011;21053;50.848;4.652;2023-02-13T08:35:02;31.35;;;17.85;;
34836;SDS011;21053;50.848;4.652;2023-02-13T08:37:28;37.30;;;19.42;;
34836;SDS011;21053;50.848;4.652;2023-02-13T08:42:24;31.52;;;17.25;;
34836;SDS011;21053;50.848;4.652;2023-02-13T08:44:50;31.95;;;18.50;;
34836;SDS011;21053;50.848;4.652;2023-02-13T08:47:18;32.60;;;18.17;;
34836;SDS011;21053;50.848;4.652;2023-02-13T08:49:47;36.28;;;18.92;;
34836;SDS011;21053;50.848;4.652;2023-02-13T08:52:54;32.95;;;19.25;;
34836;SDS011;21053;50.848;4.652;2023-02-13T08:55:23;34.38;;;19.55;;
34836;SDS011;21053;50.848;4.652;2023-02-13T08:57:50;34.80;;;19.02;;
34836;SDS011;21053;50.848;4.652;2023-02-13T09:00:18;32.50;;;18.55;;
34836;SDS011;21053;50.848;4.652;2023-02-13T09:05:14;41.92;;;19.92;;
34836;SDS011;21053;50.848;4.652;2023-02-13T09:10:08;34.95;;;19.15;;
34836;SDS011;21053;50.848;4.652;2023-02-13T09:12:36;37.92;;;20.63;;
34836;SDS011;21053;50.848;4.652;2023-02-13T09:17:32;35.15;;;19.50;;
34836;SDS011;21053;50.848;4.652;2023-02-13T09:22:27;40.10;;;21.08;;
34836;SDS011;21053;50.848;4.652;2023-02-13T09:24:55;45.33;;;21.77;;
34836;SDS011;21053;50.848;4.652;2023-02-13T09:27:25;43.33;;;21.52;;
34836;SDS011;21053;50.848;4.652;2023-02-13T09:29:56;45.75;;;22.83;;
34836;SDS011;21053;50.848;4.652;2023-02-13T09:32:23;49.90;;;21.98;;
34836;SDS011;21053;50.848;4.652;2023-02-13T09:34:50;39.75;;;20.45;;
34836;SDS011;21053;50.848;4.652;2023-02-13T09:37:17;42.97;;;21.90;;
34836;SDS011;21053;50.848;4.652;2023-02-13T09:42:25;50.53;;;22.55;;
34836;SDS011;21053;50.848;4.652;2023-02-13T09:47:35;41.67;;;22.17;;
34836;SDS011;21053;50.848;4.652;2023-02-13T09:50:10;41.85;;;22.48;;
34836;SDS011;21053;50.848;4.652;2023-02-13T09:52:54;46.00;;;23.13;;
34836;SDS011;21053;50.848;4.652;2023-02-13T09:55:26;43.22;;;21.83;;
34836;SDS011;21053;50.848;4.652;2023-02-13T10:01:22;50.00;;;23.85;;
34836;SDS011;21053;50.848;4.652;2023-02-13T10:06:49;48.40;;;23.20;;
34836;SDS011;21053;50.848;4.652;2023-02-13T10:09:32;51.97;;;24.55;;
34836;SDS011;21053;50.848;4.652;2023-02-13T10:23:27;54.10;;;26.98;;
34836;SDS011;21053;50.848;4.652;2023-02-13T10:26:01;51.65;;;24.10;;
34836;SDS011;21053;50.848;4.652;2023-02-13T10:31:23;48.30;;;23.50;;
34836;SDS011;21053;50.848;4.652;2023-02-13T10:36:36;41.70;;;20.67;;
34836;SDS011;21053;50.848;4.652;2023-02-13T10:59:26;16.77;;;11.13;;
34836;SDS011;21053;50.848;4.652;2023-02-13T11:04:46;15.23;;;10.02;;
34836;SDS011;21053;50.848;4.652;2023-02-13T11:07:17;15.90;;;10.02;;
34836;SDS011;21053;50.848;4.652;2023-02-13T11:09:46;16.98;;;10.40;;
34836;SDS011;21053;50.848;4.652;2023-02-13T11:12:27;16.45;;;10.32;;
34836;SDS011;21053;50.848;4.652;2023-02-13T11:15:00;18.48;;;10.07;;
34836;SDS011;21053;50.848;4.652;2023-02-13T11:17:30;15.48;;;9.98;;
34836;SDS011;21053;50.848;4.652;2023-02-13T11:20:06;16.88;;;10.30;;
34836;SDS011;21053;50.848;4.652;2023-02-13T11:22:47;14.18;;;9.15;;
34836;SDS011;21053;50.848;4.652;2023-02-13T11:25:21;12.80;;;9.23;;
34836;SDS011;21053;50.848;4.652;2023-02-13T11:27:54;18.17;;;10.38;;
34836;SDS011;21053;50.848;4.652;2023-02-13T11:30:40;16.05;;;9.30;;
34836;SDS011;21053;50.848;4.652;2023-02-13T11:35:50;13.32;;;8.95;;
34836;SDS011;21053;50.848;4.652;2023-02-13T11:38:41;13.57;;;8.50;;
34836;SDS011;21053;50.848;4.652;2023-02-13T11:51:43;12.05;;;8.15;;
34836;SDS011;21053;50.848;4.652;2023-02-13T11:54:26;12.65;;;7.90;;
34836;SDS011;21053;50.848;4.652;2023-02-13T11:57:55;12.75;;;8.60;;
34836;SDS011;21053;50.848;4.652;2023-02-13T12:03:43;12.98;;;8.25;;
34836;SDS011;21053;50.848;4.652;2023-02-13T12:14:58;10.93;;;7.70;;
34836;SDS011;21053;50.848;4.652;2023-02-13T12:17:16;10.60;;;7.45;;
34836;SDS011;21053;50.848;4.652;2023-02-13T12:19:49;13.07;;;7.85;;
34836;SDS011;21053;50.848;4.652;2023-02-13T12:22:29;11.80;;;7.68;;
34836;SDS011;21053;50.848;4.652;2023-02-13T12:28:33;11.80;;;7.22;;
34836;SDS011;21053;50.848;4.652;2023-02-13T12:37:15;13.25;;;7.80;;
34836;SDS011;21053;50.848;4.652;2023-02-13T12:39:56;12.85;;;8.25;;
34836;SDS011;21053;50.848;4.652;2023-02-13T12:54:10;15.80;;;8.35;;
34836;SDS011;21053;50.848;4.652;2023-02-13T12:57:33;12.63;;;8.55;;
34836;SDS011;21053;50.848;4.652;2023-02-13T13:22:26;11.45;;;7.65;;
34836;SDS011;21053;50.848;4.652;2023-02-13T13:25:16;11.77;;;7.60;;
34836;SDS011;21053;50.848;4.652;2023-02-13T13:30:47;11.55;;;7.68;;
34836;SDS011;21053;50.848;4.652;2023-02-13T13:33:19;11.52;;;7.72;;
34836;SDS011;21053;50.848;4.652;2023-02-13T13:38:40;10.95;;;7.35;;
34836;SDS011;21053;50.848;4.652;2023-02-13T13:49:54;12.95;;;7.63;;
34836;SDS011;21053;50.848;4.652;2023-02-13T13:52:28;13.18;;;8.23;;
34836;SDS011;21053;50.848;4.652;2023-02-13T13:55:00;14.70;;;8.35;;
34836;SDS011;21053;50.848;4.652;2023-02-13T14:02:48;15.40;;;8.43;;
34836;SDS011;21053;50.848;4.652;2023-02-13T14:05:32;13.23;;;8.35;;
34836;SDS011;21053;50.848;4.652;2023-02-13T14:08:01;13.68;;;8.02;;
34836;SDS011;21053;50.848;4.652;2023-02-13T14:13:32;15.90;;;8.90;;
34836;SDS011;21053;50.848;4.652;2023-02-13T14:16:02;18.60;;;10.10;;
34836;SDS011;21053;50.848;4.652;2023-02-13T14:18:32;18.63;;;9.18;;
34836;SDS011;21053;50.848;4.652;2023-02-13T14:21:02;16.98;;;9.35;;
34836;SDS011;21053;50.848;4.652;2023-02-13T14:26:30;19.17;;;9.43;;
34836;SDS011;21053;50.848;4.652;2023-02-13T14:32:05;20.10;;;9.23;;
34836;SDS011;21053;50.848;4.652;2023-02-13T14:34:39;15.95;;;8.70;;
34836;SDS011;21053;50.848;4.652;2023-02-13T14:40:41;13.63;;;7.80;;
34836;SDS011;21053;50.848;4.652;2023-02-13T14:45:47;14.60;;;8.73;;
34836;SDS011;21053;50.848;4.652;2023-02-13T14:52:04;14.60;;;7.70;;
34836;SDS011;21053;50.848;4.652;2023-02-13T14:57:19;15.43;;;7.13;;
34836;SDS011;21053;50.848;4.652;2023-02-13T14:59:50;10.30;;;6.37;;
34836;SDS011;21053;50.848;4.652;2023-02-13T15:02:30;12.82;;;7.13;;
34836;SDS011;21053;50.848;4.652;2023-02-13T15:05:04;13.00;;;6.57;;
34836;SDS011;21053;50.848;4.652;2023-02-13T15:07:35;13.70;;;6.35;;
34836;SDS011;21053;50.848;4.652;2023-02-13T15:12:40;14.48;;;6.63;;
34836;SDS011;21053;50.848;4.652;2023-02-13T15:15:23;36.42;;;6.88;;
34836;SDS011;21053;50.848;4.652;2023-02-13T15:17:56;11.30;;;6.55;;
34836;SDS011;21053;50.848;4.652;2023-02-13T15:20:26;13.25;;;6.63;;
34836;SDS011;21053;50.848;4.652;2023-02-13T15:28:03;19.02;;;6.40;;
34836;SDS011;21053;50.848;4.652;2023-02-13T15:30:32;11.40;;;6.40;;
34836;SDS011;21053;50.848;4.652;2023-02-13T15:33:18;13.63;;;6.93;;
34836;SDS011;21053;50.848;4.652;2023-02-13T15:35:59;14.15;;;6.80;;
34836;SDS011;21053;50.848;4.652;2023-02-13T15:38:32;12.52;;;7.40;;
34836;SDS011;21053;50.848;4.652;2023-02-13T15:41:19;12.18;;;6.63;;
34836;SDS011;21053;50.848;4.652;2023-02-13T15:43:52;14.38;;;7.32;;
34836;SDS011;21053;50.848;4.652;2023-02-13T15:48:57;25.45;;;7.72;;
34836;SDS011;21053;50.848;4.652;2023-02-13T15:51:28;12.27;;;7.55;;
34836;SDS011;21053;50.848;4.652;2023-02-13T15:53:59;13.75;;;8.02;;
34836;SDS011;21053;50.848;4.652;2023-02-13T15:56:29;13.40;;;7.70;;
34836;SDS011;21053;50.848;4.652;2023-02-13T15:58:58;15.95;;;8.77;;
34836;SDS011;21053;50.848;4.652;2023-02-13T16:01:25;14.93;;;7.40;;
34836;SDS011;21053;50.848;4.652;2023-02-13T16:04:05;22.05;;;8.07;;
34836;SDS011;21053;50.848;4.652;2023-02-13T16:06:36;14.75;;;8.23;;
34836;SDS011;21053;50.848;4.652;2023-02-13T16:10:02;15.40;;;8.40;;
34836;SDS011;21053;50.848;4.652;2023-02-13T16:11:59;14.75;;;8.48;;
34836;SDS011;21053;50.848;4.652;2023-02-13T16:14:57;16.45;;;8.32;;
34836;SDS011;21053;50.848;4.652;2023-02-13T16:19:59;18.45;;;8.52;;
34836;SDS011;21053;50.848;4.652;2023-02-13T16:22:33;14.40;;;8.10;;
34836;SDS011;21053;50.848;4.652;2023-02-13T16:25:15;16.33;;;8.77;;
34836;SDS011;21053;50.848;4.652;2023-02-13T16:28:01;17.02;;;9.32;;
34836;SDS011;21053;50.848;4.652;2023-02-13T16:30:35;15.48;;;8.75;;
34836;SDS011;21053;50.848;4.652;2023-02-13T16:35:57;15.07;;;8.75;;
34836;SDS011;21053;50.848;4.652;2023-02-13T16:38:32;16.17;;;8.38;;
34836;SDS011;21053;50.848;4.652;2023-02-13T16:44:00;16.80;;;8.73;;
34836;SDS011;21053;50.848;4.652;2023-02-13T16:57:15;16.27;;;8.05;;
34836;SDS011;21053;50.848;4.652;2023-02-13T16:59:57;13.35;;;6.78;;
34836;SDS011;21053;50.848;4.652;2023-02-13T17:02:33;17.63;;;7.80;;
34836;SDS011;21053;50.848;4.652;2023-02-13T17:10:09;17.38;;;7.93;;
34836;SDS011;21053;50.848;4.652;2023-02-13T17:12:53;20.05;;;7.10;;
34836;SDS011;21053;50.848;4.652;2023-02-13T17:15:24;13.77;;;7.63;;
34836;SDS011;21053;50.848;4.652;2023-02-13T17:18:02;17.95;;;7.05;;
34836;SDS011;21053;50.848;4.652;2023-02-13T17:20:32;14.93;;;7.68;;
34836;SDS011;21053;50.848;4.652;2023-02-13T17:23:03;17.02;;;8.30;;
34836;SDS011;21053;50.848;4.652;2023-02-13T17:25:35;14.65;;;8.52;;
34836;SDS011;21053;50.848;4.652;2023-02-13T17:30:39;19.92;;;9.50;;
34836;SDS011;21053;50.848;4.652;2023-02-13T17:33:10;16.88;;;9.02;;
34836;SDS011;21053;50.848;4.652;2023-02-13T17:35:38;17.83;;;9.18;;
34836;SDS011;21053;50.848;4.652;2023-02-13T17:40:33;16.92;;;8.82;;
34836;SDS011;21053;50.848;4.652;2023-02-13T17:43:10;27.48;;;11.15;;
34836;SDS011;21053;50.848;4.652;2023-02-13T17:45:37;17.38;;;9.50;;
34836;SDS011;21053;50.848;4.652;2023-02-13T17:48:04;19.15;;;9.93;;
34836;SDS011;21053;50.848;4.652;2023-02-13T17:50:30;30.88;;;17.25;;
34836;SDS011;21053;50.848;4.652;2023-02-13T17:53:10;29.88;;;12.57;;
34836;SDS011;21053;50.848;4.652;2023-02-13T17:58:17;23.20;;;10.55;;
34836;SDS011;21053;50.848;4.652;2023-02-13T18:00:42;17.35;;;9.77;;
34836;SDS011;21053;50.848;4.652;2023-02-13T18:03:09;21.30;;;10.15;;
34836;SDS011;21053;50.848;4.652;2023-02-13T18:05:38;18.70;;;10.63;;
34836;SDS011;21053;50.848;4.652;2023-02-13T18:08:21;19.85;;;10.88;;
34836;SDS011;21053;50.848;4.652;2023-02-13T18:10:48;26.08;;;13.23;;
34836;SDS011;21053;50.848;4.652;2023-02-13T18:15:43;25.25;;;12.57;;
34836;SDS011;21053;50.848;4.652;2023-02-13T18:18:09;34.65;;;13.27;;
34836;SDS011;21053;50.848;4.652;2023-02-13T18:20:41;29.30;;;14.52;;
34836;SDS011;21053;50.848;4.652;2023-02-13T18:23:10;28.55;;;14.02;;
34836;SDS011;21053;50.848;4.652;2023-02-13T18:25:41;28.88;;;15.07;;
34836;SDS011;21053;50.848;4.652;2023-02-13T18:28:09;32.42;;;14.95;;
34836;SDS011;21053;50.848;4.652;2023-02-13T18:30:36;26.23;;;13.32;;
34836;SDS011;21053;50.848;4.652;2023-02-13T18:33:02;29.02;;;15.30;;
34836;SDS011;21053;50.848;4.652;2023-02-13T18:35:29;23.98;;;12.60;;
34836;SDS011;21053;50.848;4.652;2023-02-13T18:38:02;27.98;;;13.38;;
34836;SDS011;21053;50.848;4.652;2023-02-13T18:40:29;26.90;;;12.00;;
34836;SDS011;21053;50.848;4.652;2023-02-13T18:42:56;23.02;;;12.00;;
34836;SDS011;21053;50.848;4.652;2023-02-13T18:45:21;30.92;;;13.63;;
34836;SDS011;21053;50.848;4.652;2023-02-13T18:50:17;31.42;;;13.88;;
34836;SDS011;21053;50.848;4.652;2023-02-13T18:52:43;25.92;;;13.68;;
34836;SDS011;21053;50.848;4.652;2023-02-13T18:55:11;21.30;;;11.48;;
34836;SDS011;21053;50.848;4.652;2023-02-13T18:57:40;21.25;;;10.80;;
34836;SDS011;21053;50.848;4.652;2023-02-13T19:02:44;26.02;;;13.18;;
34836;SDS011;21053;50.848;4.652;2023-02-13T19:05:13;31.23;;;14.57;;
34836;SDS011;21053;50.848;4.652;2023-02-13T19:10:07;37.75;;;16.58;;
34836;SDS011;21053;50.848;4.652;2023-02-13T19:12:35;26.88;;;13.55;;
34836;SDS011;21053;50.848;4.652;2023-02-13T19:15:01;29.50;;;12.85;;
34836;SDS011;21053;50.848;4.652;2023-02-13T19:17:27;24.88;;;12.68;;
34836;SDS011;21053;50.848;4.652;2023-02-13T19:19:53;34.70;;;15.02;;
34836;SDS011;21053;50.848;4.652;2023-02-13T19:22:19;43.55;;;18.20;;
34836;SDS011;21053;50.848;4.652;2023-02-13T19:27:15;52.67;;;19.85;;
34836;SDS011;21053;50.848;4.652;2023-02-13T19:29:41;53.78;;;21.88;;
34836;SDS011;21053;50.848;4.652;2023-02-13T19:32:09;51.80;;;20.33;;
34836;SDS011;21053;50.848;4.652;2023-02-13T19:34:35;36.75;;;16.98;;
34836;SDS011;21053;50.848;4.652;2023-02-13T19:37:01;32.45;;;15.63;;
34836;SDS011;21053;50.848;4.652;2023-02-13T19:39:26;38.45;;;17.15;;
34836;SDS011;21053;50.848;4.652;2023-02-13T19:41:52;31.95;;;13.70;;
34836;SDS011;21053;50.848;4.652;2023-02-13T19:44:31;27.88;;;12.73;;
34836;SDS011;21053;50.848;4.652;2023-02-13T19:46:56;37.03;;;13.23;;
34836;SDS011;21053;50.848;4.652;2023-02-13T19:49:25;24.83;;;12.27;;
34836;SDS011;21053;50.848;4.652;2023-02-13T19:51:59;24.80;;;12.38;;
34836;SDS011;21053;50.848;4.652;2023-02-13T19:54:28;32.45;;;14.82;;
34836;SDS011;21053;50.848;4.652;2023-02-13T19:56:53;30.35;;;16.23;;
34836;SDS011;21053;50.848;4.652;2023-02-13T19:59:24;37.65;;;15.10;;
34836;SDS011;21053;50.848;4.652;2023-02-13T20:01:52;27.98;;;13.15;;
34836;SDS011;21053;50.848;4.652;2023-02-13T20:04:18;25.08;;;12.10;;
34836;SDS011;21053;50.848;4.652;2023-02-13T20:06:44;24.15;;;11.00;;
34836;SDS011;21053;50.848;4.652;2023-02-13T20:09:10;24.17;;;11.60;;
34836;SDS011;21053;50.848;4.652;2023-02-13T20:14:13;32.67;;;12.05;;
34836;SDS011;21053;50.848;4.652;2023-02-13T20:16:40;29.50;;;12.85;;
34836;SDS011;21053;50.848;4.652;2023-02-13T20:19:10;25.27;;;12.07;;
34836;SDS011;21053;50.848;4.652;2023-02-13T20:21:40;25.58;;;12.05;;
34836;SDS011;21053;50.848;4.652;2023-02-13T20:26:37;32.67;;;13.43;;
34836;SDS011;21053;50.848;4.652;2023-02-13T20:29:04;28.70;;;13.25;;
34836;SDS011;21053;50.848;4.652;2023-02-13T20:34:02;28.40;;;12.45;;
34836;SDS011;21053;50.848;4.652;2023-02-13T20:36:31;30.80;;;12.80;;
34836;SDS011;21053;50.848;4.652;2023-02-13T20:41:29;29.60;;;14.23;;
34836;SDS011;21053;50.848;4.652;2023-02-13T20:44:06;32.15;;;15.10;;